sensor_id;sensor_type;location;lat;lon;timestamp;temperature;humidity
54178;DHT22;40085;53.004;6.770;2023-07-13T00:01:29;16.00;1.00
54178;DHT22;40085;53.004;6.770;2023-07-13T00:03:59;16.00;74.30
54178;DHT22;40085;53.004;6.770;2023-07-13T00:06:24;16.00;99.90
54178;DHT22;40085;53.004;6.770;2023-07-13T00:08:50;15.90;99.90
54178;DHT22;40085;53.004;6.770;2023-07-13T00:11:17;15.90;99.90
54178;DHT22;40085;53.004;6.770;2023-07-13T00:13:43;15.90;1.50
54178;DHT22;40085;53.004;6.770;2023-07-13T00:16:10;15.90;1.00
54178;DHT22;40085;53.004;6.770;2023-07-13T00:18:37;15.90;1.00
54178;DHT22;40085;53.004;6.770;2023-07-13T00:21:03;15.90;99.90
54178;DHT22;40085;53.004;6.770;2023-07-13T00:23:37;15.90;99.90
54178;DHT22;40085;53.004;6.770;2023-07-13T00:26:04;15.80;99.90
54178;DHT22;40085;53.004;6.770;2023-07-13T00:28:29;15.80;1.00
54178;DHT22;40085;53.004;6.770;2023-07-13T00:30:55;15.80;99.90
54178;DHT22;40085;53.004;6.770;2023-07-13T00:33:21;15.90;99.90
54178;DHT22;40085;53.004;6.770;2023-07-13T00:35:48;15.90;99.90
54178;DHT22;40085;53.004;6.770;2023-07-13T00:38:14;15.90;99.90
54178;DHT22;40085;53.004;6.770;2023-07-13T00:40:39;15.90;99.90
54178;DHT22;40085;53.004;6.770;2023-07-13T00:43:20;15.90;99.90
54178;DHT22;40085;53.004;6.770;2023-07-13T00:48:15;15.90;99.90
54178;DHT22;40085;53.004;6.770;2023-07-13T00:50:44;16.00;99.90
54178;DHT22;40085;53.004;6.770;2023-07-13T00:53:11;16.00;99.90
54178;DHT22;40085;53.004;6.770;2023-07-13T00:55:37;16.00;99.90
54178;DHT22;40085;53.004;6.770;2023-07-13T00:58:04;16.00;99.90
54178;DHT22;40085;53.004;6.770;2023-07-13T01:00:34;16.20;99.90
54178;DHT22;40085;53.004;6.770;2023-07-13T01:03:00;16.10;1.00
54178;DHT22;40085;53.004;6.770;2023-07-13T01:05:30;16.00;1.00
54178;DHT22;40085;53.004;6.770;2023-07-13T01:07:57;16.10;1.00
54178;DHT22;40085;53.004;6.770;2023-07-13T01:10:25;16.10;1.00
54178;DHT22;40085;53.004;6.770;2023-07-13T01:12:51;16.20;99.90
54178;DHT22;40085;53.004;6.770;2023-07-13T01:18:03;16.10;1.00
54178;DHT22;40085;53.004;6.770;2023-07-13T01:20:29;16.00;1.00
54178;DHT22;40085;53.004;6.770;2023-07-13T01:22:54;16.20;1.00
54178;DHT22;40085;53.004;6.770;2023-07-13T01:25:21;16.10;1.00
54178;DHT22;40085;53.004;6.770;2023-07-13T01:27:46;16.20;1.00
54178;DHT22;40085;53.004;6.770;2023-07-13T01:30:12;16.10;1.00
54178;DHT22;40085;53.004;6.770;2023-07-13T01:32:38;16.10;1.00
54178;DHT22;40085;53.004;6.770;2023-07-13T01:35:07;16.20;1.00
54178;DHT22;40085;53.004;6.770;2023-07-13T01:37:33;16.10;1.00
54178;DHT22;40085;53.004;6.770;2023-07-13T01:40:02;15.90;1.00
54178;DHT22;40085;53.004;6.770;2023-07-13T01:42:29;16.00;1.00
54178;DHT22;40085;53.004;6.770;2023-07-13T01:44:54;15.90;1.00
54178;DHT22;40085;53.004;6.770;2023-07-13T01:47:20;16.00;1.00
54178;DHT22;40085;53.004;6.770;2023-07-13T01:49:46;16.10;1.00
54178;DHT22;40085;53.004;6.770;2023-07-13T01:52:12;16.00;1.00
54178;DHT22;40085;53.004;6.770;2023-07-13T01:54:38;16.10;1.00
54178;DHT22;40085;53.004;6.770;2023-07-13T01:57:04;16.20;1.00
54178;DHT22;40085;53.004;6.770;2023-07-13T01:59:30;16.20;1.00
54178;DHT22;40085;53.004;6.770;2023-07-13T02:01:55;16.10;1.00
54178;DHT22;40085;53.004;6.770;2023-07-13T02:04:21;16.10;1.00
54178;DHT22;40085;53.004;6.770;2023-07-13T02:06:47;15.90;1.00
54178;DHT22;40085;53.004;6.770;2023-07-13T02:09:12;16.00;1.00
54178;DHT22;40085;53.004;6.770;2023-07-13T02:11:38;16.00;1.00
54178;DHT22;40085;53.004;6.770;2023-07-13T02:14:04;16.10;1.00
54178;DHT22;40085;53.004;6.770;2023-07-13T02:16:30;16.00;1.00
54178;DHT22;40085;53.004;6.770;2023-07-13T02:18:56;16.20;1.00
54178;DHT22;40085;53.004;6.770;2023-07-13T02:21:23;16.00;1.00
54178;DHT22;40085;53.004;6.770;2023-07-13T02:23:49;16.10;5.50
54178;DHT22;40085;53.004;6.770;2023-07-13T02:26:15;16.10;1.00
54178;DHT22;40085;53.004;6.770;2023-07-13T02:28:41;16.10;1.00
54178;DHT22;40085;53.004;6.770;2023-07-13T02:31:09;16.10;1.00
54178;DHT22;40085;53.004;6.770;2023-07-13T02:33:35;16.20;1.00
54178;DHT22;40085;53.004;6.770;2023-07-13T02:36:01;16.00;6.10
54178;DHT22;40085;53.004;6.770;2023-07-13T02:38:27;15.60;2.20
54178;DHT22;40085;53.004;6.770;2023-07-13T02:40:53;16.00;1.00
54178;DHT22;40085;53.004;6.770;2023-07-13T02:43:18;16.10;15.80
54178;DHT22;40085;53.004;6.770;2023-07-13T02:45:45;16.00;9.60
54178;DHT22;40085;53.004;6.770;2023-07-13T02:48:13;16.00;11.80
54178;DHT22;40085;53.004;6.770;2023-07-13T02:50:39;15.90;23.40
54178;DHT22;40085;53.004;6.770;2023-07-13T02:53:04;15.90;23.20
54178;DHT22;40085;53.004;6.770;2023-07-13T02:55:30;15.90;23.00
54178;DHT22;40085;53.004;6.770;2023-07-13T02:57:56;15.80;38.90
54178;DHT22;40085;53.004;6.770;2023-07-13T03:00:22;15.90;35.10
54178;DHT22;40085;53.004;6.770;2023-07-13T03:02:48;15.80;28.90
54178;DHT22;40085;53.004;6.770;2023-07-13T03:05:14;15.80;40.20
54178;DHT22;40085;53.004;6.770;2023-07-13T03:07:40;15.80;36.70
54178;DHT22;40085;53.004;6.770;2023-07-13T03:10:06;15.70;57.90
54178;DHT22;40085;53.004;6.770;2023-07-13T03:12:32;15.70;45.40
54178;DHT22;40085;53.004;6.770;2023-07-13T03:14:58;15.70;50.80
54178;DHT22;40085;53.004;6.770;2023-07-13T03:17:24;15.70;59.20
54178;DHT22;40085;53.004;6.770;2023-07-13T03:19:49;15.60;51.40
54178;DHT22;40085;53.004;6.770;2023-07-13T03:22:19;15.60;57.60
54178;DHT22;40085;53.004;6.770;2023-07-13T03:24:45;15.60;59.10
54178;DHT22;40085;53.004;6.770;2023-07-13T03:27:11;15.60;67.50
54178;DHT22;40085;53.004;6.770;2023-07-13T03:29:37;15.70;56.50
54178;DHT22;40085;53.004;6.770;2023-07-13T03:32:03;15.60;62.50
54178;DHT22;40085;53.004;6.770;2023-07-13T03:34:30;15.60;58.40
54178;DHT22;40085;53.004;6.770;2023-07-13T03:36:56;15.60;60.40
54178;DHT22;40085;53.004;6.770;2023-07-13T03:39:22;15.60;67.00
54178;DHT22;40085;53.004;6.770;2023-07-13T03:41:48;15.50;66.50
54178;DHT22;40085;53.004;6.770;2023-07-13T03:44:15;15.50;61.00
54178;DHT22;40085;53.004;6.770;2023-07-13T03:46:41;15.50;64.40
54178;DHT22;40085;53.004;6.770;2023-07-13T03:49:06;15.50;63.30
54178;DHT22;40085;53.004;6.770;2023-07-13T03:51:32;15.50;70.20
54178;DHT22;40085;53.004;6.770;2023-07-13T03:53:58;15.40;69.00
54178;DHT22;40085;53.004;6.770;2023-07-13T03:56:23;15.40;65.60
54178;DHT22;40085;53.004;6.770;2023-07-13T03:58:50;15.40;70.90
54178;DHT22;40085;53.004;6.770;2023-07-13T04:01:18;15.70;71.10
54178;DHT22;40085;53.004;6.770;2023-07-13T04:03:44;15.40;71.40
54178;DHT22;40085;53.004;6.770;2023-07-13T04:06:21;15.40;74.60
54178;DHT22;40085;53.004;6.770;2023-07-13T04:08:51;15.50;77.90
54178;DHT22;40085;53.004;6.770;2023-07-13T04:11:18;15.40;74.20
54178;DHT22;40085;53.004;6.770;2023-07-13T04:13:44;15.40;76.10
54178;DHT22;40085;53.004;6.770;2023-07-13T04:16:10;15.40;79.80
54178;DHT22;40085;53.004;6.770;2023-07-13T04:18:36;15.50;77.90
54178;DHT22;40085;53.004;6.770;2023-07-13T04:21:02;15.50;77.30
54178;DHT22;40085;53.004;6.770;2023-07-13T04:23:27;15.50;82.70
54178;DHT22;40085;53.004;6.770;2023-07-13T04:25:53;15.50;77.10
54178;DHT22;40085;53.004;6.770;2023-07-13T04:28:23;15.50;77.30
54178;DHT22;40085;53.004;6.770;2023-07-13T04:30:50;15.50;83.30
54178;DHT22;40085;53.004;6.770;2023-07-13T04:33:16;15.60;84.60
54178;DHT22;40085;53.004;6.770;2023-07-13T04:35:43;15.60;80.30
54178;DHT22;40085;53.004;6.770;2023-07-13T04:38:09;15.70;87.40
54178;DHT22;40085;53.004;6.770;2023-07-13T04:40:37;15.70;99.90
54178;DHT22;40085;53.004;6.770;2023-07-13T04:43:02;16.00;86.60
54178;DHT22;40085;53.004;6.770;2023-07-13T04:45:28;15.80;83.60
54178;DHT22;40085;53.004;6.770;2023-07-13T04:50:20;15.80;78.10
54178;DHT22;40085;53.004;6.770;2023-07-13T04:52:51;15.80;83.60
54178;DHT22;40085;53.004;6.770;2023-07-13T04:55:17;15.80;85.10
54178;DHT22;40085;53.004;6.770;2023-07-13T04:57:44;15.80;85.80
54178;DHT22;40085;53.004;6.770;2023-07-13T05:00:10;15.90;84.60
54178;DHT22;40085;53.004;6.770;2023-07-13T05:02:38;15.90;88.70
54178;DHT22;40085;53.004;6.770;2023-07-13T05:05:05;16.00;83.40
54178;DHT22;40085;53.004;6.770;2023-07-13T05:07:31;16.00;80.90
54178;DHT22;40085;53.004;6.770;2023-07-13T05:09:58;16.10;80.70
54178;DHT22;40085;53.004;6.770;2023-07-13T05:12:25;16.20;84.90
54178;DHT22;40085;53.004;6.770;2023-07-13T05:14:51;16.40;79.80
54178;DHT22;40085;53.004;6.770;2023-07-13T05:17:16;16.50;99.90
54178;DHT22;40085;53.004;6.770;2023-07-13T05:19:42;16.60;94.70
54178;DHT22;40085;53.004;6.770;2023-07-13T05:22:08;16.50;90.90
54178;DHT22;40085;53.004;6.770;2023-07-13T05:24:34;16.50;78.70
54178;DHT22;40085;53.004;6.770;2023-07-13T05:26:59;16.60;69.90
54178;DHT22;40085;53.004;6.770;2023-07-13T05:29:25;16.60;67.60
54178;DHT22;40085;53.004;6.770;2023-07-13T05:31:51;16.60;66.90
54178;DHT22;40085;53.004;6.770;2023-07-13T05:34:16;16.60;67.00
54178;DHT22;40085;53.004;6.770;2023-07-13T05:36:42;16.70;66.90
54178;DHT22;40085;53.004;6.770;2023-07-13T05:39:08;16.30;61.20
54178;DHT22;40085;53.004;6.770;2023-07-13T05:41:35;16.80;63.10
54178;DHT22;40085;53.004;6.770;2023-07-13T05:44:00;16.80;62.20
54178;DHT22;40085;53.004;6.770;2023-07-13T05:46:26;16.90;57.50
54178;DHT22;40085;53.004;6.770;2023-07-13T05:48:52;16.90;57.50
54178;DHT22;40085;53.004;6.770;2023-07-13T05:51:18;17.10;50.10
54178;DHT22;40085;53.004;6.770;2023-07-13T05:53:43;17.10;46.40
54178;DHT22;40085;53.004;6.770;2023-07-13T05:56:09;17.20;42.20
54178;DHT22;40085;53.004;6.770;2023-07-13T05:58:35;17.20;42.80
54178;DHT22;40085;53.004;6.770;2023-07-13T06:01:05;17.30;35.40
54178;DHT22;40085;53.004;6.770;2023-07-13T06:03:33;17.30;30.30
54178;DHT22;40085;53.004;6.770;2023-07-13T06:05:58;17.40;21.20
54178;DHT22;40085;53.004;6.770;2023-07-13T06:08:26;17.50;10.90
54178;DHT22;40085;53.004;6.770;2023-07-13T06:10:52;17.60;13.00
54178;DHT22;40085;53.004;6.770;2023-07-13T06:13:17;17.80;10.50
54178;DHT22;40085;53.004;6.770;2023-07-13T06:18:14;17.90;37.90
54178;DHT22;40085;53.004;6.770;2023-07-13T06:20:40;17.80;27.90
54178;DHT22;40085;53.004;6.770;2023-07-13T06:23:06;18.00;14.80
54178;DHT22;40085;53.004;6.770;2023-07-13T06:25:31;18.10;1.00
54178;DHT22;40085;53.004;6.770;2023-07-13T06:27:57;18.00;1.00
54178;DHT22;40085;53.004;6.770;2023-07-13T06:30:23;18.10;1.00
54178;DHT22;40085;53.004;6.770;2023-07-13T06:32:49;18.30;1.00
54178;DHT22;40085;53.004;6.770;2023-07-13T06:35:15;18.40;1.00
54178;DHT22;40085;53.004;6.770;2023-07-13T06:37:41;18.40;1.00
54178;DHT22;40085;53.004;6.770;2023-07-13T06:40:07;18.60;1.00
54178;DHT22;40085;53.004;6.770;2023-07-13T06:42:33;18.50;1.00
54178;DHT22;40085;53.004;6.770;2023-07-13T06:44:58;18.60;1.00
54178;DHT22;40085;53.004;6.770;2023-07-13T06:47:24;18.50;1.00
54178;DHT22;40085;53.004;6.770;2023-07-13T06:49:49;18.90;99.90
54178;DHT22;40085;53.004;6.770;2023-07-13T06:52:15;18.80;99.90
54178;DHT22;40085;53.004;6.770;2023-07-13T06:54:41;19.00;99.90
54178;DHT22;40085;53.004;6.770;2023-07-13T07:04:25;19.10;1.00
54178;DHT22;40085;53.004;6.770;2023-07-13T07:06:50;19.20;99.90
54178;DHT22;40085;53.004;6.770;2023-07-13T07:09:16;19.20;7.60
54178;DHT22;40085;53.004;6.770;2023-07-13T07:11:42;19.40;1.00
54178;DHT22;40085;53.004;6.770;2023-07-13T07:19:01;19.40;69.70
54178;DHT22;40085;53.004;6.770;2023-07-13T07:21:26;19.30;99.90
54178;DHT22;40085;53.004;6.770;2023-07-13T07:23:52;19.40;1.00
54178;DHT22;40085;53.004;6.770;2023-07-13T07:26:19;19.60;99.90
54178;DHT22;40085;53.004;6.770;2023-07-13T07:28:44;19.80;1.00
54178;DHT22;40085;53.004;6.770;2023-07-13T07:31:10;19.60;99.90
54178;DHT22;40085;53.004;6.770;2023-07-13T07:33:36;19.50;84.50
54178;DHT22;40085;53.004;6.770;2023-07-13T07:36:02;19.60;99.90
54178;DHT22;40085;53.004;6.770;2023-07-13T07:38:28;19.60;99.90
54178;DHT22;40085;53.004;6.770;2023-07-13T07:40:54;19.70;99.90
54178;DHT22;40085;53.004;6.770;2023-07-13T07:43:20;19.50;99.90
54178;DHT22;40085;53.004;6.770;2023-07-13T07:45:46;19.50;99.90
54178;DHT22;40085;53.004;6.770;2023-07-13T07:48:11;19.50;99.90
54178;DHT22;40085;53.004;6.770;2023-07-13T07:50:38;19.40;1.00
54178;DHT22;40085;53.004;6.770;2023-07-13T07:53:05;19.50;1.00
54178;DHT22;40085;53.004;6.770;2023-07-13T07:55:34;19.80;1.00
54178;DHT22;40085;53.004;6.770;2023-07-13T07:58:03;19.80;99.90
54178;DHT22;40085;53.004;6.770;2023-07-13T08:00:28;20.00;99.90
54178;DHT22;40085;53.004;6.770;2023-07-13T08:02:57;19.90;99.90
54178;DHT22;40085;53.004;6.770;2023-07-13T08:05:23;19.80;99.90
54178;DHT22;40085;53.004;6.770;2023-07-13T08:07:49;19.90;99.90
54178;DHT22;40085;53.004;6.770;2023-07-13T08:10:15;19.50;1.00
54178;DHT22;40085;53.004;6.770;2023-07-13T08:17:36;18.80;99.90
54178;DHT22;40085;53.004;6.770;2023-07-13T08:24:53;18.60;84.30
54178;DHT22;40085;53.004;6.770;2023-07-13T08:27:26;18.30;4.30
54178;DHT22;40085;53.004;6.770;2023-07-13T08:29:53;18.20;1.10
54178;DHT22;40085;53.004;6.770;2023-07-13T08:32:20;18.10;50.30
54178;DHT22;40085;53.004;6.770;2023-07-13T08:34:46;18.00;63.40
54178;DHT22;40085;53.004;6.770;2023-07-13T08:37:12;18.00;43.60
54178;DHT22;40085;53.004;6.770;2023-07-13T08:39:37;18.20;69.60
54178;DHT22;40085;53.004;6.770;2023-07-13T08:42:11;17.80;88.90
54178;DHT22;40085;53.004;6.770;2023-07-13T08:47:32;18.10;95.90
54178;DHT22;40085;53.004;6.770;2023-07-13T08:50:00;17.90;94.70
54178;DHT22;40085;53.004;6.770;2023-07-13T08:52:35;17.90;99.90
54178;DHT22;40085;53.004;6.770;2023-07-13T08:55:33;17.60;96.70
54178;DHT22;40085;53.004;6.770;2023-07-13T08:58:09;17.70;97.50
54178;DHT22;40085;53.004;6.770;2023-07-13T09:01:02;17.40;96.30
54178;DHT22;40085;53.004;6.770;2023-07-13T09:04:32;17.20;48.60
54178;DHT22;40085;53.004;6.770;2023-07-13T09:12:15;17.00;80.00
54178;DHT22;40085;53.004;6.770;2023-07-13T09:14:51;16.90;72.30
54178;DHT22;40085;53.004;6.770;2023-07-13T09:17:22;16.80;70.10
54178;DHT22;40085;53.004;6.770;2023-07-13T09:20:44;16.90;77.60
54178;DHT22;40085;53.004;6.770;2023-07-13T09:22:51;16.90;90.10
54178;DHT22;40085;53.004;6.770;2023-07-13T09:25:34;17.00;91.60
54178;DHT22;40085;53.004;6.770;2023-07-13T09:28:15;17.10;93.10
54178;DHT22;40085;53.004;6.770;2023-07-13T09:30:52;17.10;94.30
54178;DHT22;40085;53.004;6.770;2023-07-13T09:33:22;17.20;95.20
54178;DHT22;40085;53.004;6.770;2023-07-13T09:35:48;17.20;93.80
54178;DHT22;40085;53.004;6.770;2023-07-13T09:38:17;17.10;95.60
54178;DHT22;40085;53.004;6.770;2023-07-13T09:40:56;17.20;96.00
54178;DHT22;40085;53.004;6.770;2023-07-13T09:43:24;17.20;99.00
54178;DHT22;40085;53.004;6.770;2023-07-13T09:45:50;17.10;97.90
54178;DHT22;40085;53.004;6.770;2023-07-13T09:48:17;17.10;96.80
54178;DHT22;40085;53.004;6.770;2023-07-13T09:50:43;17.20;97.70
54178;DHT22;40085;53.004;6.770;2023-07-13T09:53:14;17.30;98.70
54178;DHT22;40085;53.004;6.770;2023-07-13T09:55:41;17.40;99.50
54178;DHT22;40085;53.004;6.770;2023-07-13T09:58:17;17.50;98.70
54178;DHT22;40085;53.004;6.770;2023-07-13T10:00:55;17.50;95.40
54178;DHT22;40085;53.004;6.770;2023-07-13T10:03:30;17.60;91.80
54178;DHT22;40085;53.004;6.770;2023-07-13T10:06:15;17.70;56.60
54178;DHT22;40085;53.004;6.770;2023-07-13T10:08:41;17.90;52.50
54178;DHT22;40085;53.004;6.770;2023-07-13T10:11:28;18.20;16.00
54178;DHT22;40085;53.004;6.770;2023-07-13T10:13:59;18.50;49.30
54178;DHT22;40085;53.004;6.770;2023-07-13T10:16:29;18.80;17.20
54178;DHT22;40085;53.004;6.770;2023-07-13T10:19:11;19.10;1.00
54178;DHT22;40085;53.004;6.770;2023-07-13T10:21:46;19.20;99.90
54178;DHT22;40085;53.004;6.770;2023-07-13T10:29:26;19.70;92.30
54178;DHT22;40085;53.004;6.770;2023-07-13T10:31:52;20.10;1.00
54178;DHT22;40085;53.004;6.770;2023-07-13T10:34:18;20.10;17.70
54178;DHT22;40085;53.004;6.770;2023-07-13T10:36:46;20.40;92.10
54178;DHT22;40085;53.004;6.770;2023-07-13T10:39:19;20.30;99.90
54178;DHT22;40085;53.004;6.770;2023-07-13T10:41:48;20.40;1.00
54178;DHT22;40085;53.004;6.770;2023-07-13T10:44:28;20.10;1.00
54178;DHT22;40085;53.004;6.770;2023-07-13T10:47:07;20.10;99.90
54178;DHT22;40085;53.004;6.770;2023-07-13T10:49:35;20.00;99.90
54178;DHT22;40085;53.004;6.770;2023-07-13T10:52:02;19.80;99.90
54178;DHT22;40085;53.004;6.770;2023-07-13T10:54:32;19.40;99.90
54178;DHT22;40085;53.004;6.770;2023-07-13T10:57:20;19.30;99.90
54178;DHT22;40085;53.004;6.770;2023-07-13T10:59:48;19.20;99.90
54178;DHT22;40085;53.004;6.770;2023-07-13T11:02:25;18.60;1.00
54178;DHT22;40085;53.004;6.770;2023-07-13T11:04:53;18.10;99.90
54178;DHT22;40085;53.004;6.770;2023-07-13T11:07:28;17.80;99.90
54178;DHT22;40085;53.004;6.770;2023-07-13T11:10:02;17.90;1.00
54178;DHT22;40085;53.004;6.770;2023-07-13T11:15:29;17.30;56.40
54178;DHT22;40085;53.004;6.770;2023-07-13T11:20:37;17.00;76.40
54178;DHT22;40085;53.004;6.770;2023-07-13T11:23:09;17.00;63.20
54178;DHT22;40085;53.004;6.770;2023-07-13T11:25:36;16.90;71.00
54178;DHT22;40085;53.004;6.770;2023-07-13T11:33:24;17.10;94.80
54178;DHT22;40085;53.004;6.770;2023-07-13T11:36:02;17.30;99.90
54178;DHT22;40085;53.004;6.770;2023-07-13T11:41:07;17.50;99.90
54178;DHT22;40085;53.004;6.770;2023-07-13T11:43:33;17.70;97.60
54178;DHT22;40085;53.004;6.770;2023-07-13T11:46:12;17.90;98.10
54178;DHT22;40085;53.004;6.770;2023-07-13T11:48:38;18.30;98.50
54178;DHT22;40085;53.004;6.770;2023-07-13T11:51:06;18.50;92.30
54178;DHT22;40085;53.004;6.770;2023-07-13T11:53:43;18.70;90.90
54178;DHT22;40085;53.004;6.770;2023-07-13T11:56:10;18.80;80.20
54178;DHT22;40085;53.004;6.770;2023-07-13T11:58:36;18.80;56.60
54178;DHT22;40085;53.004;6.770;2023-07-13T12:01:02;18.90;24.70
54178;DHT22;40085;53.004;6.770;2023-07-13T12:03:30;19.00;1.00
54178;DHT22;40085;53.004;6.770;2023-07-13T12:06:05;19.00;1.00
54178;DHT22;40085;53.004;6.770;2023-07-13T12:08:38;19.00;1.00
54178;DHT22;40085;53.004;6.770;2023-07-13T12:11:14;19.00;99.90
54178;DHT22;40085;53.004;6.770;2023-07-13T12:13:40;18.90;99.90
54178;DHT22;40085;53.004;6.770;2023-07-13T12:16:16;18.90;89.30
54178;DHT22;40085;53.004;6.770;2023-07-13T12:18:43;19.00;99.90
54178;DHT22;40085;53.004;6.770;2023-07-13T12:21:14;19.20;99.90
54178;DHT22;40085;53.004;6.770;2023-07-13T12:23:43;19.40;1.00
54178;DHT22;40085;53.004;6.770;2023-07-13T12:26:10;19.70;99.90
54178;DHT22;40085;53.004;6.770;2023-07-13T12:28:48;20.00;1.00
54178;DHT22;40085;53.004;6.770;2023-07-13T12:34:13;20.40;34.50
54178;DHT22;40085;53.004;6.770;2023-07-13T12:39:23;20.70;99.90
54178;DHT22;40085;53.004;6.770;2023-07-13T12:41:51;20.90;46.90
54178;DHT22;40085;53.004;6.770;2023-07-13T12:44:22;21.10;99.90
54178;DHT22;40085;53.004;6.770;2023-07-13T12:47:04;21.30;99.90
54178;DHT22;40085;53.004;6.770;2023-07-13T12:49:33;21.30;99.90
54178;DHT22;40085;53.004;6.770;2023-07-13T12:52:02;21.30;99.90
54178;DHT22;40085;53.004;6.770;2023-07-13T12:54:30;21.40;99.90
54178;DHT22;40085;53.004;6.770;2023-07-13T12:56:58;21.40;99.90
54178;DHT22;40085;53.004;6.770;2023-07-13T12:59:27;21.40;99.90
54178;DHT22;40085;53.004;6.770;2023-07-13T13:01:54;21.30;99.90
54178;DHT22;40085;53.004;6.770;2023-07-13T13:04:20;21.40;99.90
54178;DHT22;40085;53.004;6.770;2023-07-13T13:06:47;21.50;99.90
54178;DHT22;40085;53.004;6.770;2023-07-13T13:09:15;21.60;99.90
54178;DHT22;40085;53.004;6.770;2023-07-13T13:11:42;21.60;99.90
54178;DHT22;40085;53.004;6.770;2023-07-13T13:14:08;21.60;99.90
54178;DHT22;40085;53.004;6.770;2023-07-13T13:17:00;21.80;99.90
54178;DHT22;40085;53.004;6.770;2023-07-13T13:19:28;21.70;99.90
54178;DHT22;40085;53.004;6.770;2023-07-13T13:21:55;21.70;99.90
54178;DHT22;40085;53.004;6.770;2023-07-13T13:24:25;21.70;99.90
54178;DHT22;40085;53.004;6.770;2023-07-13T13:26:53;21.50;99.90
54178;DHT22;40085;53.004;6.770;2023-07-13T13:29:22;21.60;99.90
54178;DHT22;40085;53.004;6.770;2023-07-13T13:31:50;21.60;99.90
54178;DHT22;40085;53.004;6.770;2023-07-13T13:34:17;21.60;99.90
54178;DHT22;40085;53.004;6.770;2023-07-13T13:36:44;21.80;99.90
54178;DHT22;40085;53.004;6.770;2023-07-13T13:39:28;22.00;99.90
54178;DHT22;40085;53.004;6.770;2023-07-13T13:41:55;22.10;99.90
54178;DHT22;40085;53.004;6.770;2023-07-13T13:44:22;22.20;99.90
54178;DHT22;40085;53.004;6.770;2023-07-13T13:46:51;22.30;99.90
54178;DHT22;40085;53.004;6.770;2023-07-13T13:49:25;22.20;99.90
54178;DHT22;40085;53.004;6.770;2023-07-13T13:51:52;22.00;99.90
54178;DHT22;40085;53.004;6.770;2023-07-13T13:54:19;21.80;99.90
54178;DHT22;40085;53.004;6.770;2023-07-13T13:56:47;21.60;99.90
54178;DHT22;40085;53.004;6.770;2023-07-13T13:59:14;21.60;99.90
54178;DHT22;40085;53.004;6.770;2023-07-13T14:01:41;21.60;99.90
54178;DHT22;40085;53.004;6.770;2023-07-13T14:04:21;21.60;99.90
54178;DHT22;40085;53.004;6.770;2023-07-13T14:06:48;21.50;99.90
54178;DHT22;40085;53.004;6.770;2023-07-13T14:09:16;21.50;99.90
54178;DHT22;40085;53.004;6.770;2023-07-13T14:11:44;21.70;99.90
54178;DHT22;40085;53.004;6.770;2023-07-13T14:14:19;21.70;99.90
54178;DHT22;40085;53.004;6.770;2023-07-13T14:16:46;21.80;99.90
54178;DHT22;40085;53.004;6.770;2023-07-13T14:19:18;21.70;99.90
54178;DHT22;40085;53.004;6.770;2023-07-13T14:21:44;21.70;99.90
54178;DHT22;40085;53.004;6.770;2023-07-13T14:24:10;21.60;99.90
54178;DHT22;40085;53.004;6.770;2023-07-13T14:26:39;21.50;99.90
54178;DHT22;40085;53.004;6.770;2023-07-13T14:29:14;21.50;99.90
54178;DHT22;40085;53.004;6.770;2023-07-13T14:31:42;21.50;99.90
54178;DHT22;40085;53.004;6.770;2023-07-13T14:34:11;21.60;99.90
54178;DHT22;40085;53.004;6.770;2023-07-13T14:36:42;21.70;99.90
54178;DHT22;40085;53.004;6.770;2023-07-13T14:39:16;21.80;99.90
54178;DHT22;40085;53.004;6.770;2023-07-13T14:41:42;21.80;99.90
54178;DHT22;40085;53.004;6.770;2023-07-13T14:44:13;21.90;99.90
54178;DHT22;40085;53.004;6.770;2023-07-13T14:46:39;22.10;99.90
54178;DHT22;40085;53.004;6.770;2023-07-13T14:49:30;21.90;99.90
54178;DHT22;40085;53.004;6.770;2023-07-13T14:51:59;21.90;99.90
54178;DHT22;40085;53.004;6.770;2023-07-13T14:54:25;21.70;99.90
54178;DHT22;40085;53.004;6.770;2023-07-13T14:56:51;21.70;99.90
54178;DHT22;40085;53.004;6.770;2023-07-13T14:59:17;22.00;99.90
54178;DHT22;40085;53.004;6.770;2023-07-13T15:01:47;22.30;99.90
54178;DHT22;40085;53.004;6.770;2023-07-13T15:04:13;22.30;99.90
54178;DHT22;40085;53.004;6.770;2023-07-13T15:07:00;22.10;99.90
54178;DHT22;40085;53.004;6.770;2023-07-13T15:09:28;22.10;99.90
54178;DHT22;40085;53.004;6.770;2023-07-13T15:11:58;22.30;99.90
54178;DHT22;40085;53.004;6.770;2023-07-13T15:14:24;22.40;99.90
54178;DHT22;40085;53.004;6.770;2023-07-13T15:16:52;22.40;99.90
54178;DHT22;40085;53.004;6.770;2023-07-13T15:19:19;22.40;99.90
54178;DHT22;40085;53.004;6.770;2023-07-13T15:21:46;22.60;99.90
54178;DHT22;40085;53.004;6.770;2023-07-13T15:24:13;22.60;99.90
54178;DHT22;40085;53.004;6.770;2023-07-13T15:26:39;22.30;99.90
54178;DHT22;40085;53.004;6.770;2023-07-13T15:29:05;22.30;99.90
54178;DHT22;40085;53.004;6.770;2023-07-13T15:31:32;22.50;99.90
54178;DHT22;40085;53.004;6.770;2023-07-13T15:33:59;22.70;99.90
54178;DHT22;40085;53.004;6.770;2023-07-13T15:36:25;23.10;99.90
54178;DHT22;40085;53.004;6.770;2023-07-13T15:38:54;23.10;99.90
54178;DHT22;40085;53.004;6.770;2023-07-13T15:41:22;22.90;99.90
54178;DHT22;40085;53.004;6.770;2023-07-13T15:43:54;23.00;99.90
54178;DHT22;40085;53.004;6.770;2023-07-13T15:46:22;23.10;99.90
54178;DHT22;40085;53.004;6.770;2023-07-13T15:48:49;23.00;99.90
54178;DHT22;40085;53.004;6.770;2023-07-13T15:51:20;23.10;99.90
54178;DHT22;40085;53.004;6.770;2023-07-13T15:53:47;23.30;99.90
54178;DHT22;40085;53.004;6.770;2023-07-13T15:56:25;23.20;99.90
54178;DHT22;40085;53.004;6.770;2023-07-13T15:58:53;23.20;99.90
54178;DHT22;40085;53.004;6.770;2023-07-13T16:01:19;23.30;99.90
54178;DHT22;40085;53.004;6.770;2023-07-13T16:06:18;23.00;99.90
54178;DHT22;40085;53.004;6.770;2023-07-13T16:08:46;23.00;99.90
54178;DHT22;40085;53.004;6.770;2023-07-13T16:11:19;22.90;99.90
54178;DHT22;40085;53.004;6.770;2023-07-13T16:13:46;22.90;99.90
54178;DHT22;40085;53.004;6.770;2023-07-13T16:16:13;22.70;99.90
54178;DHT22;40085;53.004;6.770;2023-07-13T16:18:39;22.70;99.90
54178;DHT22;40085;53.004;6.770;2023-07-13T16:21:11;22.70;99.90
54178;DHT22;40085;53.004;6.770;2023-07-13T16:23:37;22.80;99.90
54178;DHT22;40085;53.004;6.770;2023-07-13T16:26:20;23.00;99.90
54178;DHT22;40085;53.004;6.770;2023-07-13T16:28:47;23.10;99.90
54178;DHT22;40085;53.004;6.770;2023-07-13T16:31:13;23.20;99.90
54178;DHT22;40085;53.004;6.770;2023-07-13T16:33:39;23.50;99.90
54178;DHT22;40085;53.004;6.770;2023-07-13T16:36:10;23.90;99.90
54178;DHT22;40085;53.004;6.770;2023-07-13T16:38:36;24.30;99.90
54178;DHT22;40085;53.004;6.770;2023-07-13T16:41:03;24.60;99.90
54178;DHT22;40085;53.004;6.770;2023-07-13T16:43:31;25.20;99.90
54178;DHT22;40085;53.004;6.770;2023-07-13T16:45:57;25.30;99.90
54178;DHT22;40085;53.004;6.770;2023-07-13T16:48:27;25.80;99.90
54178;DHT22;40085;53.004;6.770;2023-07-13T16:50:56;26.00;99.90